Time;durP1;ratioP1;P1;durP2;ratioP2;P2;SDS_P1;SDS_P2;PMS_P1;PMS_P2;Temp;Humidity;BMP_temperature;BMP_pressure;BME280_temperature;BME280_humidity;BME280_pressure;Samples;Min_cycle;Max_cycle;Signal;HPM_P1;HPM_P2
2021/11/08 00:00:31;;;;;;;;;;;;;;;22.30;54.09;100751.72;2075274;28;772;-56
2021/11/08 00:01:31;;;;;;;;;;;;;;;22.26;52.52;100754.59;2075157;28;895;-56
2021/11/08 00:02:33;;;;;;;;;;;;;;;22.23;51.07;100747.53;2075089;28;1124;-56
2021/11/08 00:03:36;;;;;;;;;;;;;;;22.26;52.79;100758.19;2075126;28;839;-57
2021/11/08 00:04:36;;;;;;;;;;;;;;;22.26;50.68;100758.19;2074808;28;906;-56
2021/11/08 00:05:40;;;;;;;;;;;;;;;22.25;52.50;100759.13;2075274;28;1179;-56
2021/11/08 00:06:41;;;;;;;;;;;;;;;22.26;51.63;100760.00;2075114;28;890;-56
2021/11/08 00:07:43;;;;;;;;;;;;;;;22.22;50.76;100764.66;2075196;28;819;-57
2021/11/08 00:08:43;;;;;;;;;;;;;;;22.25;50.74;100763.63;2075156;28;1134;-56
2021/11/08 00:09:44;;;;;;;;;;;;;;;22.26;52.28;100758.19;2075117;28;811;-56
2021/11/08 00:10:44;;;;;;;;;;;;;;;22.21;51.23;100765.59;2075115;28;878;-55
2021/11/08 00:11:45;;;;;;;;;;;;;;;22.19;53.35;100772.88;2075227;28;914;-57
2021/11/08 00:12:46;;;;;;;;;;;;;;;22.22;51.17;100772.75;2075150;28;811;-56
2021/11/08 00:13:46;;;;;;;;;;;;;;;22.17;52.11;100775.63;2075210;28;1134;-56
2021/11/08 00:14:47;;;;;;;;;;;;;;;22.19;51.41;100775.56;2074978;28;1910;-56
2021/11/08 00:18:05;;;;;;;;;;;;;;;22.11;53.27;100777.69;2075092;28;769;-56
2021/11/08 00:20:19;;;;;;;;;;;;;;;22.15;51.45;100784.72;2075083;28;823;-56
2021/11/08 00:21:21;;;;;;;;;;;;;;;22.15;52.42;100782.88;2075078;28;1065;-56
2021/11/08 00:22:21;;;;;;;;;;;;;;;22.18;51.00;100785.47;2075037;28;863;-56
2021/11/08 00:23:23;;;;;;;;;;;;;;;22.16;50.18;100783.78;2074834;28;1211;-57
2021/11/08 00:24:24;;;;;;;;;;;;;;;22.11;51.69;100785.78;2075084;28;804;-56
2021/11/08 00:25:25;;;;;;;;;;;;;;;22.11;52.53;100783.09;2075074;28;870;-57
2021/11/08 00:26:25;;;;;;;;;;;;;;;22.12;50.93;100788.41;2074895;28;879;-56
2021/11/08 00:27:25;;;;;;;;;;;;;;;22.09;51.51;100788.53;2074894;28;997;-57
2021/11/08 00:28:25;;;;;;;;;;;;;;;22.06;52.07;100792.25;2100609;28;809;-56
2021/11/08 00:29:25;;;;;;;;;;;;;;;22.11;50.92;100789.34;2100614;28;767;-57
2021/11/08 00:30:27;;;;;;;;;;;;;;;21.99;53.08;100796.13;2100624;28;838;-56
2021/11/08 00:31:28;;;;;;;;;;;;;;;22.04;53.41;100782.47;2100625;28;826;-57
2021/11/08 00:32:28;;;;;;;;;;;;;;;22.03;54.09;100784.28;2100658;28;801;-57
2021/11/08 00:33:28;;;;;;;;;;;;;;;21.99;51.69;100797.97;2100418;28;755;-56
2021/11/08 00:34:28;;;;;;;;;;;;;;;22.01;53.01;100802.34;2100493;28;1033;-57
2021/11/08 00:35:28;;;;;;;;;;;;;;;22.03;51.10;100786.97;2100512;28;1951;-56
2021/11/08 00:36:29;;;;;;;;;;;;;;;22.04;52.11;100801.34;2100535;28;985;-56
2021/11/08 00:37:29;;;;;;;;;;;;;;;22.04;52.57;100790.56;2100549;28;855;-56
2021/11/08 00:38:29;;;;;;;;;;;;;;;22.02;50.49;100801.41;2092463;28;1352;-56
2021/11/08 00:39:30;;;;;;;;;;;;;;;22.04;50.93;100807.63;2092289;28;858;-56
2021/11/08 00:40:30;;;;;;;;;;;;;;;22.01;52.31;100806.88;2092185;28;783;-56
2021/11/08 00:41:30;;;;;;;;;;;;;;;21.98;51.54;100807.84;2092364;28;1051;-56
2021/11/08 00:42:31;;;;;;;;;;;;;;;22.01;51.65;100807.72;2092233;28;990;-56
2021/11/08 00:43:31;;;;;;;;;;;;;;;22.01;50.42;100812.25;2092087;28;771;-57
2021/11/08 00:44:31;;;;;;;;;;;;;;;21.96;52.49;100815.13;2092324;28;771;-56
2021/11/08 00:45:32;;;;;;;;;;;;;;;21.97;51.29;100814.19;2092221;28;747;-56
2021/11/08 00:46:32;;;;;;;;;;;;;;;22.00;53.72;100819.47;2092118;28;977;-56
2021/11/08 00:47:34;;;;;;;;;;;;;;;21.97;53.36;100816.88;2092209;28;775;-56
2021/11/08 00:48:36;;;;;;;;;;;;;;;21.97;53.23;100824.97;2092346;28;739;-56
2021/11/08 00:49:37;;;;;;;;;;;;;;;21.92;52.03;100821.59;2092125;28;823;-57
2021/11/08 00:50:38;;;;;;;;;;;;;;;21.96;52.23;100831.31;2092117;28;809;-56
2021/11/08 00:51:41;;;;;;;;;;;;;;;21.97;52.18;100824.13;2091945;28;865;-56
2021/11/08 00:52:42;;;;;;;;;;;;;;;21.97;51.71;100824.97;2092071;28;834;-57
2021/11/08 00:53:43;;;;;;;;;;;;;;;21.95;51.38;100829.56;2092173;28;874;-56
2021/11/08 00:54:43;;;;;;;;;;;;;;;21.95;51.47;100834.09;2092081;28;1906;-56
2021/11/08 00:55:44;;;;;;;;;;;;;;;21.97;52.70;100833.06;2092277;28;810;-56
2021/11/08 00:56:48;;;;;;;;;;;;;;;21.91;52.11;100842.28;2091953;28;1058;-57
2021/11/08 00:57:50;;;;;;;;;;;;;;;21.88;53.45;100844.22;2092062;28;869;-56
2021/11/08 00:58:50;;;;;;;;;;;;;;;21.85;52.53;100845.22;2092097;28;850;-57
2021/11/08 00:59:53;;;;;;;;;;;;;;;21.86;51.35;100846.97;2092111;28;827;-56
2021/11/08 01:00:53;;;;;;;;;;;;;;;21.90;52.72;100850.44;2092175;28;1081;-57
2021/11/08 01:01:56;;;;;;;;;;;;;;;21.85;52.02;100850.63;2091987;28;882;-56
2021/11/08 01:02:59;;;;;;;;;;;;;;;21.86;53.87;100857.78;2091946;28;841;-56
2021/11/08 01:03:59;;;;;;;;;;;;;;;21.88;53.59;100855.91;2092084;28;958;-57
2021/11/08 01:05:00;;;;;;;;;;;;;;;21.89;51.57;100865.75;2091991;28;819;-56
2021/11/08 01:06:02;;;;;;;;;;;;;;;21.88;51.34;100863.09;2092064;28;818;-56
2021/11/08 01:07:02;;;;;;;;;;;;;;;21.88;50.82;100860.38;2091950;28;854;-56
2021/11/08 01:08:04;;;;;;;;;;;;;;;21.84;52.75;100870.44;2091925;28;849;-56
2021/11/08 01:09:04;;;;;;;;;;;;;;;21.90;51.67;100874.69;2092143;28;858;-56
2021/11/08 01:10:06;;;;;;;;;;;;;;;21.88;50.36;100879.28;2092006;28;775;-57
2021/11/08 01:11:07;;;;;;;;;;;;;;;21.88;50.37;100881.97;2091766;28;1208;-56
2021/11/08 01:12:07;;;;;;;;;;;;;;;21.87;50.79;100881.09;2091363;28;1603;-57
2021/11/08 01:13:07;;;;;;;;;;;;;;;21.88;51.28;100880.16;2091319;28;1208;-56
2021/11/08 01:14:08;;;;;;;;;;;;;;;21.90;52.20;100883.69;2091947;28;1039;-57
2021/11/08 01:15:08;;;;;;;;;;;;;;;21.90;50.11;100877.41;2091860;28;1914;-57
2021/11/08 01:16:09;;;;;;;;;;;;;;;21.88;51.04;100888.25;2091693;28;866;-57
2021/11/08 01:17:09;;;;;;;;;;;;;;;21.90;52.24;100888.19;2091496;28;999;-57
2021/11/08 01:18:09;;;;;;;;;;;;;;;21.83;51.41;100890.25;2091926;28;854;-56
2021/11/08 01:19:09;;;;;;;;;;;;;;;21.84;52.10;100886.63;2091783;28;775;-57
2021/11/08 01:20:10;;;;;;;;;;;;;;;21.82;52.40;100883.09;2091953;28;854;-56
2021/11/08 01:21:10;;;;;;;;;;;;;;;21.83;50.79;100890.25;2091918;28;1039;-56
2021/11/08 01:22:18;;;;;;;;;;;;;;;21.83;51.67;100886.66;2091674;28;984;-56
2021/11/08 01:23:20;;;;;;;;;;;;;;;21.83;51.13;100894.75;2091764;28;885;-56
2021/11/08 01:24:21;;;;;;;;;;;;;;;21.80;51.02;100901.16;2091943;28;807;-56
2021/11/08 01:25:21;;;;;;;;;;;;;;;21.83;51.63;100897.44;2091902;28;794;-56
2021/11/08 01:26:21;;;;;;;;;;;;;;;21.82;52.47;100898.38;2091930;28;906;-56
2021/11/08 01:27:25;;;;;;;;;;;;;;;21.84;51.20;100902.78;2091821;28;783;-57
2021/11/08 01:28:36;;;;;;;;;;;;;;;21.83;51.49;100898.34;2091886;28;822;-57
2021/11/08 01:29:36;;;;;;;;;;;;;;;21.83;50.96;100895.63;2091910;28;822;-56
2021/11/08 01:30:37;;;;;;;;;;;;;;;21.86;51.29;100903.63;2091579;28;810;-57
2021/11/08 01:31:37;;;;;;;;;;;;;;;21.84;50.24;100900.09;2091805;28;771;-56
2021/11/08 01:32:37;;;;;;;;;;;;;;;21.80;51.98;100905.63;2091786;28;1100;-56
2021/11/08 01:33:39;;;;;;;;;;;;;;;21.77;51.49;100902.16;2091540;28;845;-56
2021/11/08 01:34:40;;;;;;;;;;;;;;;21.80;51.38;100903.84;2091816;28;810;-56
2021/11/08 01:35:45;;;;;;;;;;;;;;;21.82;50.47;100909.16;2091788;28;1944;-55
2021/11/08 01:36:51;;;;;;;;;;;;;;;21.80;50.72;100908.34;2091794;28;822;-56
2021/11/08 01:38:02;;;;;;;;;;;;;;;21.77;52.42;100915.63;2094652;28;1497;-55
2021/11/08 01:39:19;;;;;;;;;;;;;;;21.72;51.07;100911.34;2100083;28;806;-56
2021/11/08 01:40:19;;;;;;;;;;;;;;;21.72;51.73;100916.72;2100117;28;794;-56
2021/11/08 01:41:21;;;;;;;;;;;;;;;21.75;52.27;100920.22;2099996;28;898;-57
2021/11/08 01:42:21;;;;;;;;;;;;;;;21.75;51.67;100919.31;2100021;28;797;-56
2021/11/08 01:43:21;;;;;;;;;;;;;;;21.79;51.00;100920.06;2100065;28;775;-57
2021/11/08 01:44:22;;;;;;;;;;;;;;;21.77;51.67;100928.22;2100068;28;907;-56
2021/11/08 01:45:22;;;;;;;;;;;;;;;21.74;52.35;100928.34;2100027;28;1217;-56
2021/11/08 01:46:22;;;;;;;;;;;;;;;21.74;51.71;100934.63;2099923;28;841;-57
2021/11/08 01:47:22;;;;;;;;;;;;;;;21.70;50.74;100929.38;2099968;28;976;-55
2021/11/08 01:48:22;;;;;;;;;;;;;;;21.74;52.62;100929.22;2099913;28;1039;-56
2021/11/08 01:49:23;;;;;;;;;;;;;;;21.75;50.71;100925.59;2099894;28;779;-56
2021/11/08 01:50:24;;;;;;;;;;;;;;;21.74;52.64;100940.00;2099956;28;984;-57
2021/11/08 01:51:24;;;;;;;;;;;;;;;21.75;51.10;100940.88;2099984;28;787;-57
2021/11/08 01:52:24;;;;;;;;;;;;;;;21.75;51.99;100933.69;2099885;28;984;-58
2021/11/08 01:53:25;;;;;;;;;;;;;;;21.77;51.27;100939.91;2099918;28;1028;-57
2021/11/08 01:54:25;;;;;;;;;;;;;;;21.80;51.97;100940.69;2099928;28;779;-57
2021/11/08 01:55:27;;;;;;;;;;;;;;;21.81;51.07;100951.44;2099823;28;1886;-57
2021/11/08 01:56:27;;;;;;;;;;;;;;;21.82;50.24;100949.59;2099829;28;1121;-57
2021/11/08 01:57:27;;;;;;;;;;;;;;;21.81;51.88;100946.03;2099546;28;981;-58
2021/11/08 01:58:29;;;;;;;;;;;;;;;21.79;50.66;100952.41;2099893;28;767;-58
2021/11/08 01:59:32;;;;;;;;;;;;;;;21.82;50.53;100939.72;2099945;28;862;-58
2021/11/08 02:00:33;;;;;;;;;;;;;;;21.79;51.40;100949.72;2099900;28;805;-57
2021/11/08 02:01:34;;;;;;;;;;;;;;;21.76;52.36;100954.31;2099123;28;2020;-58
2021/11/08 02:02:34;;;;;;;;;;;;;;;21.75;51.42;100963.34;2099721;28;766;-57
2021/11/08 02:03:35;;;;;;;;;;;;;;;21.75;51.26;100957.94;2099952;28;853;-57
2021/11/08 02:04:35;;;;;;;;;;;;;;;21.77;51.00;100957.88;2099884;28;810;-57
2021/11/08 02:05:35;;;;;;;;;;;;;;;21.74;51.80;100955.28;2099842;28;1157;-57
2021/11/08 02:06:36;;;;;;;;;;;;;;;21.71;51.35;100956.31;2099820;28;862;-58
2021/11/08 02:07:37;;;;;;;;;;;;;;;21.70;52.32;100962.63;2099851;28;813;-57
2021/11/08 02:08:38;;;;;;;;;;;;;;;21.67;52.71;100959.16;2099697;28;787;-57
2021/11/08 02:09:39;;;;;;;;;;;;;;;21.75;50.49;100966.03;2099893;28;1140;-57
2021/11/08 02:10:39;;;;;;;;;;;;;;;21.74;50.84;100960.69;2099759;28;1154;-57
2021/11/08 02:11:39;;;;;;;;;;;;;;;21.73;51.88;100969.72;2099875;28;1059;-57
2021/11/08 02:12:40;;;;;;;;;;;;;;;21.74;50.99;100958.88;2099665;28;939;-57
2021/11/08 02:13:40;;;;;;;;;;;;;;;21.71;51.68;100966.19;2099850;28;1153;-57
2021/11/08 02:14:41;;;;;;;;;;;;;;;21.65;51.83;100966.41;2099852;28;818;-57
2021/11/08 02:15:41;;;;;;;;;;;;;;;21.63;51.37;100974.56;2099608;28;1961;-58
2021/11/08 02:16:42;;;;;;;;;;;;;;;21.66;52.83;100977.16;2099748;28;1402;-57
2021/11/08 02:17:44;;;;;;;;;;;;;;;21.69;51.07;100978.84;2099797;28;1199;-57
2021/11/08 02:18:45;;;;;;;;;;;;;;;21.68;51.47;100975.28;2099608;28;807;-57
2021/11/08 02:19:46;;;;;;;;;;;;;;;21.70;51.38;100981.50;2099731;28;802;-57
2021/11/08 02:20:48;;;;;;;;;;;;;;;21.74;52.46;100977.75;2099751;28;889;-56
2021/11/08 02:21:50;;;;;;;;;;;;;;;21.68;51.63;100977.09;2099814;28;880;-58
2021/11/08 02:22:52;;;;;;;;;;;;;;;21.75;50.63;100986.72;2099813;28;882;-57
2021/11/08 02:23:53;;;;;;;;;;;;;;;21.71;52.03;100985.97;2099838;28;794;-56
2021/11/08 02:24:53;;;;;;;;;;;;;;;21.68;52.49;100980.69;2099805;28;861;-58
2021/11/08 02:25:56;;;;;;;;;;;;;;;21.64;53.66;100991.59;2099889;28;747;-57
2021/11/08 02:26:57;;;;;;;;;;;;;;;21.67;52.06;100992.41;2099650;28;833;-57
2021/11/08 02:27:57;;;;;;;;;;;;;;;21.71;51.50;100994.03;2099506;28;778;-57
2021/11/08 02:28:57;;;;;;;;;;;;;;;21.68;51.23;100996.84;2099216;28;803;-57
2021/11/08 02:29:58;;;;;;;;;;;;;;;21.67;51.68;100991.50;2099806;28;893;-56
2021/11/08 02:30:59;;;;;;;;;;;;;;;21.68;51.95;100998.66;2099712;28;977;-57
2021/11/08 02:32:00;;;;;;;;;;;;;;;21.69;51.75;100997.72;2099359;28;810;-56
2021/11/08 02:33:00;;;;;;;;;;;;;;;21.70;52.21;100996.78;2099757;28;810;-56
2021/11/08 02:34:00;;;;;;;;;;;;;;;21.67;51.45;101005.88;2099840;28;898;-57
2021/11/08 02:35:01;;;;;;;;;;;;;;;21.64;51.53;101000.59;2099574;28;1894;-56
2021/11/08 02:36:02;;;;;;;;;;;;;;;21.67;52.41;101005.88;2099772;28;866;-57
2021/11/08 02:37:02;;;;;;;;;;;;;;;21.69;51.70;101012.09;2099637;28;2056;-57
2021/11/08 02:38:03;;;;;;;;;;;;;;;21.70;52.05;101012.97;2099683;28;1197;-57
2021/11/08 02:39:04;;;;;;;;;;;;;;;21.68;51.92;101009.44;2099752;28;775;-56
2021/11/08 02:40:05;;;;;;;;;;;;;;;21.64;52.51;101016.75;2099772;28;818;-57
2021/11/08 02:41:06;;;;;;;;;;;;;;;21.67;52.02;101013.06;2099686;28;984;-57
2021/11/08 02:42:06;;;;;;;;;;;;;;;21.66;53.08;101019.38;2099646;28;806;-56
2021/11/08 02:43:06;;;;;;;;;;;;;;;21.65;52.83;101012.25;2099707;28;1059;-56
2021/11/08 02:44:07;;;;;;;;;;;;;;;21.64;51.72;101021.25;2099700;28;985;-57
2021/11/08 02:45:09;;;;;;;;;;;;;;;21.59;51.77;101021.41;2099580;28;822;-57
2021/11/08 02:46:12;;;;;;;;;;;;;;;21.64;52.57;101030.25;2099740;28;806;-56
2021/11/08 02:47:14;;;;;;;;;;;;;;;21.61;51.24;101030.31;2099596;28;901;-57
2021/11/08 02:48:15;;;;;;;;;;;;;;;21.60;51.39;101029.41;2099496;28;810;-57
2021/11/08 02:49:16;;;;;;;;;;;;;;;21.59;52.43;101026.78;2099694;28;857;-56
2021/11/08 02:50:17;;;;;;;;;;;;;;;21.59;52.36;101026.78;2099660;28;830;-57
2021/11/08 02:51:22;;;;;;;;;;;;;;;21.60;51.76;101033.94;2099681;28;873;-57
2021/11/08 02:52:25;;;;;;;;;;;;;;;21.66;53.22;101032.88;2099139;28;831;-56
2021/11/08 02:53:26;;;;;;;;;;;;;;;21.67;51.99;101029.25;2099085;28;861;-57
2021/11/08 02:54:31;;;;;;;;;;;;;;;21.62;52.64;101035.66;2099633;28;837;-57
2021/11/08 02:55:31;;;;;;;;;;;;;;;21.57;52.36;101036.75;2099302;28;1953;-56
2021/11/08 02:56:32;;;;;;;;;;;;;;;21.58;51.77;101039.38;2099563;28;1082;-57
2021/11/08 02:57:35;;;;;;;;;;;;;;;21.61;52.10;101025.78;2099696;28;869;-56
2021/11/08 02:58:37;;;;;;;;;;;;;;;21.62;53.09;101040.19;2099258;28;862;-57
2021/11/08 02:59:38;;;;;;;;;;;;;;;21.58;52.27;101035.81;2099652;28;802;-56
2021/11/08 03:00:38;;;;;;;;;;;;;;;21.64;51.06;101034.75;2099622;28;763;-57
2021/11/08 03:01:38;;;;;;;;;;;;;;;21.64;51.56;101037.44;2099274;28;786;-56
2021/11/08 03:02:40;;;;;;;;;;;;;;;21.64;51.72;101045.53;2099593;28;981;-57
2021/11/08 03:03:54;;;;;;;;;;;;;;;21.67;52.31;101045.41;2099633;28;849;-57
2021/11/08 03:04:55;;;;;;;;;;;;;;;21.67;50.97;101040.91;2099685;28;798;-56
2021/11/08 03:06:01;;;;;;;;;;;;;;;21.58;51.08;101036.69;2099052;28;959;-56
2021/11/08 03:07:01;;;;;;;;;;;;;;;21.65;51.84;101048.19;2099108;28;896;-57
2021/11/08 03:08:03;;;;;;;;;;;;;;;21.60;51.82;101047.44;2099596;28;997;-56
2021/11/08 03:09:13;;;;;;;;;;;;;;;21.54;51.41;101048.50;2099456;28;1923;-56
2021/11/08 03:10:17;;;;;;;;;;;;;;;21.59;52.22;101051.06;2099396;28;895;-56
2021/11/08 03:11:17;;;;;;;;;;;;;;;21.61;51.54;101057.28;2099511;28;1298;-56
2021/11/08 03:12:26;;;;;;;;;;;;;;;21.58;51.21;101054.69;2099517;28;833;-56
2021/11/08 03:13:27;;;;;;;;;;;;;;;21.59;51.85;101064.53;2099572;28;818;-57
2021/11/08 03:14:30;;;;;;;;;;;;;;;21.62;51.51;101061.75;2099675;28;842;-56
2021/11/08 03:15:42;;;;;;;;;;;;;;;21.57;51.25;101056.47;2099349;28;1969;-56
2021/11/08 03:16:56;;;;;;;;;;;;;;;21.57;53.36;101066.41;2099574;28;1149;-57
2021/11/08 03:18:09;;;;;;;;;;;;;;;21.56;51.62;101053.84;2099657;28;1118;-56
2021/11/08 03:19:30;;;;;;;;;;;;;;;21.51;51.47;101069.28;2099631;28;838;-56
2021/11/08 03:20:30;;;;;;;;;;;;;;;21.58;53.26;101068.16;2099594;28;896;-57
2021/11/08 03:21:31;;;;;;;;;;;;;;;21.57;51.53;101077.19;2099547;28;858;-56
2021/11/08 03:22:33;;;;;;;;;;;;;;;21.57;51.53;101075.34;2099572;28;810;-57
2021/11/08 03:23:33;;;;;;;;;;;;;;;21.56;52.37;101078.09;2099678;28;850;-57
2021/11/08 03:25:41;;;;;;;;;;;;;;;21.59;52.84;101086.97;2099642;28;846;-58
2021/11/08 03:26:47;;;;;;;;;;;;;;;21.61;51.17;101089.63;2099632;28;846;-56
2021/11/08 03:27:54;;;;;;;;;;;;;;;21.53;52.82;101087.16;2099494;28;853;-56
2021/11/08 03:28:55;;;;;;;;;;;;;;;21.48;51.54;101084.63;2099577;28;806;-57
2021/11/08 03:29:55;;;;;;;;;;;;;;;21.49;53.14;101082.81;2099609;28;802;-57
2021/11/08 03:30:57;;;;;;;;;;;;;;;21.53;52.02;101086.31;2099451;28;891;-56
2021/11/08 03:31:57;;;;;;;;;;;;;;;21.55;52.67;101089.81;2099557;28;813;-57
2021/11/08 03:32:58;;;;;;;;;;;;;;;21.56;52.23;101080.81;2099561;28;794;-56
2021/11/08 03:33:59;;;;;;;;;;;;;;;21.57;51.38;101088.81;2099335;28;790;-56
2021/11/08 03:35:02;;;;;;;;;;;;;;;21.57;52.44;101082.56;2099242;28;1951;-56
2021/11/08 03:36:02;;;;;;;;;;;;;;;21.54;52.37;101088.94;2099561;28;798;-56
2021/11/08 03:37:03;;;;;;;;;;;;;;;21.52;51.95;101087.22;2099595;28;1201;-57
2021/11/08 03:38:04;;;;;;;;;;;;;;;21.58;52.72;101095.13;2095038;28;1193;-56
2021/11/08 03:39:05;;;;;;;;;;;;;;;21.55;52.22;101095.22;2091259;28;840;-57
2021/11/08 03:40:07;;;;;;;;;;;;;;;21.59;51.43;101094.19;2091986;28;807;-56
2021/11/08 03:41:08;;;;;;;;;;;;;;;21.58;52.59;101089.72;2092707;28;1213;-56
2021/11/08 03:42:08;;;;;;;;;;;;;;;21.60;52.28;101095.94;2092653;28;818;-56
2021/11/08 03:43:11;;;;;;;;;;;;;;;21.53;52.01;101094.38;2092572;28;787;-57
2021/11/08 03:44:11;;;;;;;;;;;;;;;21.58;52.20;101100.50;2092807;28;802;-56
2021/11/08 03:45:11;;;;;;;;;;;;;;;21.57;52.42;101107.69;2092661;28;973;-57
2021/11/08 03:46:11;;;;;;;;;;;;;;;21.62;52.13;101102.19;2092644;28;917;-56
2021/11/08 03:47:12;;;;;;;;;;;;;;;21.58;52.28;101100.50;2092607;28;936;-56
2021/11/08 03:48:13;;;;;;;;;;;;;;;21.58;52.08;101104.06;2092590;28;770;-57
2021/11/08 03:49:14;;;;;;;;;;;;;;;21.60;52.36;101104.03;2092645;28;822;-56
2021/11/08 03:50:14;;;;;;;;;;;;;;;21.52;52.25;101106.09;2092608;28;1075;-56
2021/11/08 03:51:14;;;;;;;;;;;;;;;21.50;51.79;101108.81;2092570;28;953;-56
2021/11/08 03:52:14;;;;;;;;;;;;;;;21.57;52.43;101066.41;2092661;28;826;-57
2021/11/08 03:53:15;;;;;;;;;;;;;;;21.53;52.92;101065.59;2092445;28;846;-56
2021/11/08 03:54:15;;;;;;;;;;;;;;;21.49;53.63;101069.34;2092583;28;972;-56
2021/11/08 03:55:17;;;;;;;;;;;;;;;21.52;52.33;101079.16;2092495;28;1894;-56
2021/11/08 03:56:17;;;;;;;;;;;;;;;21.57;52.59;101080.75;2092150;28;1047;-56
2021/11/08 03:57:17;;;;;;;;;;;;;;;21.57;51.88;101055.63;2092481;28;846;-57
2021/11/08 03:58:17;;;;;;;;;;;;;;;21.58;52.43;101073.56;2092628;28;803;-56
2021/11/08 03:59:17;;;;;;;;;;;;;;;21.52;52.30;101176.19;2092503;28;1063;-57
2021/11/08 04:00:18;;;;;;;;;;;;;;;21.51;51.42;101150.16;2092631;28;1039;-56
2021/11/08 04:01:19;;;;;;;;;;;;;;;21.58;52.12;101140.94;2092530;28;796;-56
2021/11/08 04:02:20;;;;;;;;;;;;;;;21.60;51.41;101126.47;2092195;28;1433;-57
2021/11/08 04:03:20;;;;;;;;;;;;;;;21.60;52.20;101126.47;2092480;28;767;-57
2021/11/08 04:04:20;;;;;;;;;;;;;;;21.52;51.66;101123.13;2092485;28;1139;-56
2021/11/08 04:05:22;;;;;;;;;;;;;;;21.59;52.01;101124.69;2092573;28;732;-56
2021/11/08 04:06:22;;;;;;;;;;;;;;;21.55;52.58;101127.56;2092573;28;830;-57
2021/11/08 04:07:23;;;;;;;;;;;;;;;21.47;52.06;101126.00;2092416;28;980;-56
2021/11/08 04:08:23;;;;;;;;;;;;;;;21.55;53.14;101122.16;2092489;28;834;-58
2021/11/08 04:09:23;;;;;;;;;;;;;;;21.57;51.68;101128.41;2092482;28;795;-56
2021/11/08 04:10:24;;;;;;;;;;;;;;;21.57;52.31;101129.25;2092548;28;854;-55
2021/11/08 04:11:25;;;;;;;;;;;;;;;21.53;52.14;101153.69;2092500;28;700;-56
2021/11/08 04:12:27;;;;;;;;;;;;;;;21.50;52.90;101151.09;2092160;28;964;-56
2021/11/08 04:13:31;;;;;;;;;;;;;;;21.58;53.21;101159.81;2092494;28;806;-56
2021/11/08 04:14:31;;;;;;;;;;;;;;;21.55;51.46;101159.91;2092425;28;839;-56
2021/11/08 04:15:36;;;;;;;;;;;;;;;21.55;50.91;101154.53;2092429;28;1915;-56
2021/11/08 04:16:37;;;;;;;;;;;;;;;21.48;52.88;101157.41;2092530;28;823;-56
2021/11/08 04:17:43;;;;;;;;;;;;;;;21.53;50.91;101167.16;2092317;28;847;-56
2021/11/08 04:18:50;;;;;;;;;;;;;;;21.56;51.13;101165.22;2092493;28;900;-56
2021/11/08 04:19:52;;;;;;;;;;;;;;;21.55;51.46;101168.00;2092471;28;881;-56
2021/11/08 04:20:53;;;;;;;;;;;;;;;21.55;51.36;101165.28;2092283;28;827;-56
2021/11/08 04:21:54;;;;;;;;;;;;;;;21.56;52.63;101159.84;2092414;28;816;-57
2021/11/08 04:22:54;;;;;;;;;;;;;;;21.46;51.58;101126.06;2092420;28;952;-56
2021/11/08 04:23:54;;;;;;;;;;;;;;;21.48;53.00;101127.75;2092446;28;848;-56
2021/11/08 04:24:56;;;;;;;;;;;;;;;21.51;52.72;101123.19;2092411;28;968;-56
2021/11/08 04:25:58;;;;;;;;;;;;;;;21.54;52.30;101126.66;2092321;28;810;-56
2021/11/08 04:26:58;;;;;;;;;;;;;;;21.46;52.88;101142.22;2092383;28;795;-56
2021/11/08 04:27:58;;;;;;;;;;;;;;;21.44;52.95;101138.72;2092332;28;759;-57
2021/11/08 04:29:03;;;;;;;;;;;;;;;21.44;51.95;101142.25;2092337;28;911;-56
2021/11/08 04:30:04;;;;;;;;;;;;;;;21.45;52.74;101144.03;2092407;28;849;-56
2021/11/08 04:31:05;;;;;;;;;;;;;;;21.54;51.44;101142.84;2092205;28;1173;-57
2021/11/08 04:32:05;;;;;;;;;;;;;;;21.56;52.56;101140.97;2092426;28;820;-56
2021/11/08 04:34:30;;;;;;;;;;;;;;;21.47;54.86;101146.69;2092422;28;862;-57
2021/11/08 04:35:43;;;;;;;;;;;;;;;21.44;53.21;101146.78;2092350;28;1894;-56
2021/11/08 04:43:48;;;;;;;;;;;;;;;21.50;52.91;101168.13;2100581;28;739;-56
2021/11/08 04:45:08;;;;;;;;;;;;;;;21.46;52.56;101153.88;2100403;28;842;-56
2021/11/08 04:50:12;;;;;;;;;;;;;;;21.45;54.06;101173.69;2100586;28;823;-56
2021/11/08 04:54:39;;;;;;;;;;;;;;;21.53;53.32;101181.50;2100525;28;996;-56
2021/11/08 04:56:08;;;;;;;;;;;;;;;21.46;52.78;101188.06;2100354;28;1937;-56
2021/11/08 04:58:41;;;;;;;;;;;;;;;21.52;53.29;101195.03;2100462;28;835;-57
2021/11/08 05:22:10;;;;;;;;;;;;;;;23.63;50.83;101220.88;2100054;28;646;-56
2021/11/08 05:24:36;;;;;;;;;;;;;;;23.88;50.46;101221.69;2099938;28;684;-56
2021/11/08 05:28:17;;;;;;;;;;;;;;;23.89;51.06;101223.47;2100188;28;850;-58
2021/11/08 05:30:17;;;;;;;;;;;;;;;23.88;50.19;101233.38;2100168;28;1028;-57
2021/11/08 05:31:17;;;;;;;;;;;;;;;23.80;50.84;101233.72;2100156;28;782;-57
2021/11/08 05:32:18;;;;;;;;;;;;;;;23.81;49.74;101232.78;2100120;28;905;-58
2021/11/08 05:33:18;;;;;;;;;;;;;;;23.93;49.03;101235.91;2099876;28;972;-58
2021/11/08 05:34:18;;;;;;;;;;;;;;;23.94;49.83;101241.25;2100047;28;858;-58
2021/11/08 05:35:19;;;;;;;;;;;;;;;23.95;47.99;101245.72;2099451;28;1886;-58
2021/11/08 05:36:19;;;;;;;;;;;;;;;23.97;49.14;101242.97;2099654;28;1035;-58
2021/11/08 05:37:21;;;;;;;;;;;;;;;23.92;47.34;101237.72;2100026;28;981;-57
2021/11/08 05:38:21;;;;;;;;;;;;;;;24.03;51.74;101245.47;2093193;28;1248;-58
2021/11/08 05:39:21;;;;;;;;;;;;;;;24.04;50.15;101240.91;2091764;28;843;-57
2021/11/08 05:40:28;;;;;;;;;;;;;;;24.04;47.27;101240.91;2091783;28;1036;-58
2021/11/08 05:41:29;;;;;;;;;;;;;;;24.05;46.87;101248.97;2091892;28;873;-57
2021/11/08 05:42:29;;;;;;;;;;;;;;;24.10;49.10;101248.78;2091695;28;1044;-58
2021/11/08 05:43:29;;;;;;;;;;;;;;;24.13;49.10;101252.25;2091682;28;775;-57
2021/11/08 05:44:30;;;;;;;;;;;;;;;24.07;47.53;101254.31;2091764;28;715;-57
2021/11/08 05:45:34;;;;;;;;;;;;;;;24.10;46.73;101257.78;2091782;28;883;-59
2021/11/08 05:46:34;;;;;;;;;;;;;;;24.07;47.43;101257.91;2091735;28;1248;-57
2021/11/08 05:47:35;;;;;;;;;;;;;;;24.10;45.28;101263.19;2091799;28;948;-58
2021/11/08 05:48:35;;;;;;;;;;;;;;;24.16;46.67;101261.16;2091736;28;810;-57
2021/11/08 05:49:36;;;;;;;;;;;;;;;24.26;49.43;101265.25;2091735;28;862;-57
2021/11/08 05:50:38;;;;;;;;;;;;;;;24.17;47.06;101269.22;2091677;28;857;-57
2021/11/08 05:51:39;;;;;;;;;;;;;;;24.22;49.89;101272.63;2091606;28;862;-58
2021/11/08 05:52:40;;;;;;;;;;;;;;;24.13;48.23;101271.19;2091682;28;1051;-57
2021/11/08 05:53:47;;;;;;;;;;;;;;;24.23;48.04;101273.50;2091696;28;799;-57
2021/11/08 05:54:48;;;;;;;;;;;;;;;24.22;47.54;101274.44;2091549;28;814;-57
2021/11/08 05:56:06;;;;;;;;;;;;;;;24.27;45.33;101283.25;2091662;28;1890;-57
2021/11/08 05:59:54;;;;;;;;;;;;;;;24.26;46.18;101276.97;2091709;28;953;-57
2021/11/08 06:49:34;;;;;;;;;;;;;;;24.69;52.58;101351.88;2091386;28;716;-57
2021/11/08 06:50:34;;;;;;;;;;;;;;;24.71;47.46;101359.03;2091415;28;798;-57
2021/11/08 06:51:35;;;;;;;;;;;;;;;24.77;47.97;101357.91;2091416;28;933;-57
2021/11/08 06:52:37;;;;;;;;;;;;;;;24.62;47.37;101356.69;2091404;28;858;-58
2021/11/08 06:53:38;;;;;;;;;;;;;;;24.60;49.72;101364.00;2091374;28;818;-57
2021/11/08 06:54:39;;;;;;;;;;;;;;;24.64;46.98;101368.34;2091353;28;1114;-57
2021/11/08 06:55:40;;;;;;;;;;;;;;;24.83;48.84;101363.06;2091395;28;1886;-57
2021/11/08 06:56:48;;;;;;;;;;;;;;;24.75;47.94;101373.34;2091219;28;1195;-58
2021/11/08 06:57:52;;;;;;;;;;;;;;;24.81;49.21;101370.38;2091401;28;834;-57
2021/11/08 06:58:52;;;;;;;;;;;;;;;24.71;47.85;101374.38;2091361;28;790;-57
2021/11/08 06:59:52;;;;;;;;;;;;;;;24.60;51.51;101369.44;2091176;28;803;-58
2021/11/08 07:00:53;;;;;;;;;;;;;;;24.69;49.15;101373.56;2091150;28;1323;-57
2021/11/08 07:01:54;;;;;;;;;;;;;;;24.68;48.07;101380.81;2091395;28;830;-57
2021/11/08 07:02:56;;;;;;;;;;;;;;;24.70;51.64;101376.22;2091315;28;1096;-57
2021/11/08 07:03:56;;;;;;;;;;;;;;;24.71;46.45;101379.78;2091297;28;973;-57
2021/11/08 07:04:56;;;;;;;;;;;;;;;24.67;48.45;101384.47;2091326;28;866;-57
2021/11/08 07:05:56;;;;;;;;;;;;;;;24.68;49.82;101382.63;2091065;28;783;-57